Terminal Aerodrome Forecast
Issued by NWS

Home | Current Version | Previous Version | Text Only | Print | Product List | Glossary Off
Versions: 1 2 3 4 5 6 7 8 9 10 11 12 13 14 15 16 17 18 19 20

000
FTUS41 KCLE 300529
TAFFDY
TAF
KFDY 300529Z 3006/0106 08008KT P6SM BKN040 BKN150
     FM301900 09012G20KT 6SM -RA OVC035
     FM010000 09015KT 3SM -RA BR OVC007=

USA.gov is the U.S. government's official web portal to all federal, state and local government web resources and services.